sensor_id;sensor_type;location;lat;lon;timestamp;P1;durP1;ratioP1;P2;durP2;ratioP2
37971;SDS011;23794;48.234;8.344;2023-07-29T00:01:10;1.63;;;1.10;;
37971;SDS011;23794;48.234;8.344;2023-07-29T00:03:36;1.77;;;1.10;;
37971;SDS011;23794;48.234;8.344;2023-07-29T00:06:03;2.97;;;1.13;;
37971;SDS011;23794;48.234;8.344;2023-07-29T00:08:29;1.40;;;1.00;;
37971;SDS011;23794;48.234;8.344;2023-07-29T00:10:56;1.60;;;0.88;;
37971;SDS011;23794;48.234;8.344;2023-07-29T00:13:23;2.53;;;0.93;;
37971;SDS011;23794;48.234;8.344;2023-07-29T00:15:49;3.33;;;1.17;;
37971;SDS011;23794;48.234;8.344;2023-07-29T00:18:16;1.73;;;1.00;;
37971;SDS011;23794;48.234;8.344;2023-07-29T00:20:43;1.85;;;1.00;;
37971;SDS011;23794;48.234;8.344;2023-07-29T00:23:10;2.97;;;0.70;;
37971;SDS011;23794;48.234;8.344;2023-07-29T00:25:37;4.43;;;1.13;;
37971;SDS011;23794;48.234;8.344;2023-07-29T00:28:03;3.55;;;0.82;;
37971;SDS011;23794;48.234;8.344;2023-07-29T00:30:30;3.55;;;0.90;;
37971;SDS011;23794;48.234;8.344;2023-07-29T00:32:57;3.60;;;0.98;;
37971;SDS011;23794;48.234;8.344;2023-07-29T00:35:24;1.00;;;0.70;;
37971;SDS011;23794;48.234;8.344;2023-07-29T00:37:51;2.40;;;1.10;;
37971;SDS011;23794;48.234;8.344;2023-07-29T00:40:21;2.60;;;1.00;;
37971;SDS011;23794;48.234;8.344;2023-07-29T00:42:52;2.25;;;0.80;;
37971;SDS011;23794;48.234;8.344;2023-07-29T00:45:19;2.45;;;1.30;;
37971;SDS011;23794;48.234;8.344;2023-07-29T00:47:45;1.30;;;1.00;;
37971;SDS011;23794;48.234;8.344;2023-07-29T00:50:15;1.77;;;1.00;;
37971;SDS011;23794;48.234;8.344;2023-07-29T00:52:43;5.75;;;1.00;;
37971;SDS011;23794;48.234;8.344;2023-07-29T00:55:10;1.58;;;0.90;;
37971;SDS011;23794;48.234;8.344;2023-07-29T00:57:37;2.20;;;0.75;;
37971;SDS011;23794;48.234;8.344;2023-07-29T01:00:04;1.98;;;0.90;;
37971;SDS011;23794;48.234;8.344;2023-07-29T01:02:31;2.75;;;0.93;;
37971;SDS011;23794;48.234;8.344;2023-07-29T01:04:59;1.48;;;0.80;;
37971;SDS011;23794;48.234;8.344;2023-07-29T01:07:31;0.98;;;0.80;;
37971;SDS011;23794;48.234;8.344;2023-07-29T01:10:16;1.20;;;0.50;;
37971;SDS011;23794;48.234;8.344;2023-07-29T01:13:10;1.42;;;0.75;;
37971;SDS011;23794;48.234;8.344;2023-07-29T01:18:17;1.65;;;1.10;;
37971;SDS011;23794;48.234;8.344;2023-07-29T01:20:47;2.42;;;0.93;;
37971;SDS011;23794;48.234;8.344;2023-07-29T01:23:15;3.90;;;0.90;;
37971;SDS011;23794;48.234;8.344;2023-07-29T01:25:42;3.15;;;0.90;;
37971;SDS011;23794;48.234;8.344;2023-07-29T01:28:09;1.27;;;0.90;;
37971;SDS011;23794;48.234;8.344;2023-07-29T01:30:38;0.85;;;0.50;;
37971;SDS011;23794;48.234;8.344;2023-07-29T01:33:18;3.13;;;0.90;;
37971;SDS011;23794;48.234;8.344;2023-07-29T01:38:21;1.27;;;0.75;;
37971;SDS011;23794;48.234;8.344;2023-07-29T01:40:57;1.13;;;0.80;;
37971;SDS011;23794;48.234;8.344;2023-07-29T01:43:31;1.45;;;0.90;;
37971;SDS011;23794;48.234;8.344;2023-07-29T01:45:58;1.33;;;0.80;;
37971;SDS011;23794;48.234;8.344;2023-07-29T01:48:27;1.20;;;0.75;;
37971;SDS011;23794;48.234;8.344;2023-07-29T01:50:56;3.50;;;1.23;;
37971;SDS011;23794;48.234;8.344;2023-07-29T01:53:23;1.20;;;0.90;;
37971;SDS011;23794;48.234;8.344;2023-07-29T01:55:50;1.40;;;0.90;;
37971;SDS011;23794;48.234;8.344;2023-07-29T01:58:17;2.53;;;0.98;;
37971;SDS011;23794;48.234;8.344;2023-07-29T02:00:46;2.80;;;0.88;;
37971;SDS011;23794;48.234;8.344;2023-07-29T02:03:13;1.77;;;1.00;;
37971;SDS011;23794;48.234;8.344;2023-07-29T02:05:40;3.38;;;1.05;;
37971;SDS011;23794;48.234;8.344;2023-07-29T02:08:08;3.30;;;1.15;;
37971;SDS011;23794;48.234;8.344;2023-07-29T02:10:35;3.30;;;1.00;;
37971;SDS011;23794;48.234;8.344;2023-07-29T02:13:02;4.80;;;1.00;;
37971;SDS011;23794;48.234;8.344;2023-07-29T02:15:29;1.60;;;1.10;;
37971;SDS011;23794;48.234;8.344;2023-07-29T02:17:56;2.63;;;1.30;;
37971;SDS011;23794;48.234;8.344;2023-07-29T02:20:23;2.17;;;1.60;;
37971;SDS011;23794;48.234;8.344;2023-07-29T02:22:50;6.10;;;1.60;;
37971;SDS011;23794;48.234;8.344;2023-07-29T02:25:17;4.13;;;1.48;;
37971;SDS011;23794;48.234;8.344;2023-07-29T02:27:44;2.75;;;1.52;;
37971;SDS011;23794;48.234;8.344;2023-07-29T02:30:10;1.50;;;1.20;;
37971;SDS011;23794;48.234;8.344;2023-07-29T02:32:38;1.10;;;0.90;;
37971;SDS011;23794;48.234;8.344;2023-07-29T02:35:05;2.35;;;1.30;;
37971;SDS011;23794;48.234;8.344;2023-07-29T02:37:32;2.83;;;0.90;;
37971;SDS011;23794;48.234;8.344;2023-07-29T02:39:59;3.63;;;1.00;;
37971;SDS011;23794;48.234;8.344;2023-07-29T02:42:26;2.10;;;0.80;;
37971;SDS011;23794;48.234;8.344;2023-07-29T02:44:52;2.22;;;1.10;;
37971;SDS011;23794;48.234;8.344;2023-07-29T02:47:19;3.33;;;1.13;;
37971;SDS011;23794;48.234;8.344;2023-07-29T02:49:46;2.75;;;1.30;;
37971;SDS011;23794;48.234;8.344;2023-07-29T02:52:12;2.05;;;0.80;;
37971;SDS011;23794;48.234;8.344;2023-07-29T02:54:39;1.30;;;0.98;;
37971;SDS011;23794;48.234;8.344;2023-07-29T02:57:06;2.88;;;1.08;;
37971;SDS011;23794;48.234;8.344;2023-07-29T02:59:32;3.22;;;1.05;;
37971;SDS011;23794;48.234;8.344;2023-07-29T03:01:59;4.88;;;1.13;;
37971;SDS011;23794;48.234;8.344;2023-07-29T03:04:25;25.80;;;10.98;;
37971;SDS011;23794;48.234;8.344;2023-07-29T03:06:52;12.88;;;7.38;;
37971;SDS011;23794;48.234;8.344;2023-07-29T03:09:19;4.53;;;3.13;;
37971;SDS011;23794;48.234;8.344;2023-07-29T03:11:46;8.55;;;5.00;;
37971;SDS011;23794;48.234;8.344;2023-07-29T03:14:12;3.72;;;2.30;;
37971;SDS011;23794;48.234;8.344;2023-07-29T03:16:39;25.17;;;12.63;;
37971;SDS011;23794;48.234;8.344;2023-07-29T03:19:06;54.55;;;24.02;;
37971;SDS011;23794;48.234;8.344;2023-07-29T03:21:33;90.45;;;44.03;;
37971;SDS011;23794;48.234;8.344;2023-07-29T03:23:59;41.20;;;20.80;;
37971;SDS011;23794;48.234;8.344;2023-07-29T03:26:26;42.60;;;19.65;;
37971;SDS011;23794;48.234;8.344;2023-07-29T03:28:53;54.03;;;26.67;;
37971;SDS011;23794;48.234;8.344;2023-07-29T03:31:20;42.78;;;21.88;;
37971;SDS011;23794;48.234;8.344;2023-07-29T03:33:46;28.50;;;15.48;;
37971;SDS011;23794;48.234;8.344;2023-07-29T03:36:14;24.50;;;11.77;;
37971;SDS011;23794;48.234;8.344;2023-07-29T03:38:41;25.20;;;11.90;;
37971;SDS011;23794;48.234;8.344;2023-07-29T03:41:08;30.83;;;14.73;;
37971;SDS011;23794;48.234;8.344;2023-07-29T03:43:35;22.63;;;12.18;;
37971;SDS011;23794;48.234;8.344;2023-07-29T03:46:02;22.98;;;13.32;;
37971;SDS011;23794;48.234;8.344;2023-07-29T03:48:29;20.05;;;10.30;;
37971;SDS011;23794;48.234;8.344;2023-07-29T03:50:57;15.32;;;8.20;;
37971;SDS011;23794;48.234;8.344;2023-07-29T03:53:24;11.55;;;5.95;;
37971;SDS011;23794;48.234;8.344;2023-07-29T03:55:51;8.25;;;4.38;;
37971;SDS011;23794;48.234;8.344;2023-07-29T03:58:18;14.02;;;6.55;;
37971;SDS011;23794;48.234;8.344;2023-07-29T04:00:45;7.25;;;3.80;;
37971;SDS011;23794;48.234;8.344;2023-07-29T04:03:12;6.40;;;3.45;;
37971;SDS011;23794;48.234;8.344;2023-07-29T04:05:38;8.15;;;4.20;;
37971;SDS011;23794;48.234;8.344;2023-07-29T04:08:05;7.10;;;3.95;;
37971;SDS011;23794;48.234;8.344;2023-07-29T04:10:32;7.30;;;3.70;;
37971;SDS011;23794;48.234;8.344;2023-07-29T04:12:58;7.05;;;2.78;;
37971;SDS011;23794;48.234;8.344;2023-07-29T04:15:25;6.38;;;2.78;;
37971;SDS011;23794;48.234;8.344;2023-07-29T04:17:52;5.20;;;2.20;;
37971;SDS011;23794;48.234;8.344;2023-07-29T04:20:18;4.78;;;2.45;;
37971;SDS011;23794;48.234;8.344;2023-07-29T04:22:45;4.68;;;2.50;;
37971;SDS011;23794;48.234;8.344;2023-07-29T04:25:12;4.22;;;2.08;;
37971;SDS011;23794;48.234;8.344;2023-07-29T04:27:39;4.03;;;2.38;;
37971;SDS011;23794;48.234;8.344;2023-07-29T04:30:06;3.33;;;2.22;;
37971;SDS011;23794;48.234;8.344;2023-07-29T04:32:33;2.53;;;1.67;;
37971;SDS011;23794;48.234;8.344;2023-07-29T04:35:00;3.60;;;2.25;;
37971;SDS011;23794;48.234;8.344;2023-07-29T04:37:26;2.97;;;1.27;;
37971;SDS011;23794;48.234;8.344;2023-07-29T04:39:53;4.63;;;1.38;;
37971;SDS011;23794;48.234;8.344;2023-07-29T04:42:19;1.50;;;0.95;;
37971;SDS011;23794;48.234;8.344;2023-07-29T04:44:48;2.47;;;1.20;;
37971;SDS011;23794;48.234;8.344;2023-07-29T04:47:15;2.95;;;1.67;;
37971;SDS011;23794;48.234;8.344;2023-07-29T04:49:42;1.98;;;1.20;;
37971;SDS011;23794;48.234;8.344;2023-07-29T04:52:08;5.85;;;1.90;;
37971;SDS011;23794;48.234;8.344;2023-07-29T04:54:35;2.53;;;1.60;;
37971;SDS011;23794;48.234;8.344;2023-07-29T04:57:02;4.85;;;1.33;;
37971;SDS011;23794;48.234;8.344;2023-07-29T04:59:29;5.72;;;1.45;;
37971;SDS011;23794;48.234;8.344;2023-07-29T05:01:55;2.47;;;1.55;;
37971;SDS011;23794;48.234;8.344;2023-07-29T05:04:22;3.55;;;1.58;;
37971;SDS011;23794;48.234;8.344;2023-07-29T05:06:49;4.72;;;1.73;;
37971;SDS011;23794;48.234;8.344;2023-07-29T05:09:18;2.70;;;1.50;;
37971;SDS011;23794;48.234;8.344;2023-07-29T05:11:47;5.75;;;1.50;;
37971;SDS011;23794;48.234;8.344;2023-07-29T05:14:16;2.03;;;1.13;;
37971;SDS011;23794;48.234;8.344;2023-07-29T05:16:44;2.60;;;1.17;;
37971;SDS011;23794;48.234;8.344;2023-07-29T05:19:11;4.10;;;1.63;;
37971;SDS011;23794;48.234;8.344;2023-07-29T05:21:40;3.72;;;1.23;;
37971;SDS011;23794;48.234;8.344;2023-07-29T05:24:07;3.03;;;1.40;;
37971;SDS011;23794;48.234;8.344;2023-07-29T05:26:34;2.95;;;1.10;;
37971;SDS011;23794;48.234;8.344;2023-07-29T05:29:04;1.85;;;1.25;;
37971;SDS011;23794;48.234;8.344;2023-07-29T05:31:30;3.00;;;1.20;;
37971;SDS011;23794;48.234;8.344;2023-07-29T05:33:58;3.05;;;1.52;;
37971;SDS011;23794;48.234;8.344;2023-07-29T05:36:28;2.35;;;1.27;;
37971;SDS011;23794;48.234;8.344;2023-07-29T05:38:55;2.72;;;1.73;;
37971;SDS011;23794;48.234;8.344;2023-07-29T05:41:22;4.18;;;2.15;;
37971;SDS011;23794;48.234;8.344;2023-07-29T05:43:49;3.35;;;1.60;;
37971;SDS011;23794;48.234;8.344;2023-07-29T05:46:16;2.17;;;1.67;;
37971;SDS011;23794;48.234;8.344;2023-07-29T05:48:42;2.50;;;1.30;;
37971;SDS011;23794;48.234;8.344;2023-07-29T05:51:09;2.30;;;1.38;;
37971;SDS011;23794;48.234;8.344;2023-07-29T05:53:36;4.93;;;2.03;;
37971;SDS011;23794;48.234;8.344;2023-07-29T05:56:03;10.68;;;2.67;;
37971;SDS011;23794;48.234;8.344;2023-07-29T05:58:37;4.72;;;2.88;;
37971;SDS011;23794;48.234;8.344;2023-07-29T06:01:06;7.85;;;3.92;;
37971;SDS011;23794;48.234;8.344;2023-07-29T06:03:32;15.23;;;4.93;;
37971;SDS011;23794;48.234;8.344;2023-07-29T06:05:59;4.97;;;3.22;;
37971;SDS011;23794;48.234;8.344;2023-07-29T06:08:26;5.70;;;2.53;;
37971;SDS011;23794;48.234;8.344;2023-07-29T06:10:54;12.10;;;2.83;;
37971;SDS011;23794;48.234;8.344;2023-07-29T06:13:21;5.43;;;2.00;;
37971;SDS011;23794;48.234;8.344;2023-07-29T06:15:50;3.67;;;1.88;;
37971;SDS011;23794;48.234;8.344;2023-07-29T06:18:17;2.30;;;1.67;;
37971;SDS011;23794;48.234;8.344;2023-07-29T06:20:44;3.90;;;1.52;;
37971;SDS011;23794;48.234;8.344;2023-07-29T06:23:11;2.33;;;1.48;;
37971;SDS011;23794;48.234;8.344;2023-07-29T06:25:37;2.67;;;1.30;;
37971;SDS011;23794;48.234;8.344;2023-07-29T06:28:04;4.57;;;1.38;;
37971;SDS011;23794;48.234;8.344;2023-07-29T06:30:31;3.80;;;1.30;;
37971;SDS011;23794;48.234;8.344;2023-07-29T06:32:58;3.42;;;1.80;;
37971;SDS011;23794;48.234;8.344;2023-07-29T06:35:24;4.10;;;1.42;;
37971;SDS011;23794;48.234;8.344;2023-07-29T06:37:51;5.20;;;2.00;;
37971;SDS011;23794;48.234;8.344;2023-07-29T06:40:18;2.97;;;2.10;;
37971;SDS011;23794;48.234;8.344;2023-07-29T06:42:44;5.05;;;1.50;;
37971;SDS011;23794;48.234;8.344;2023-07-29T06:45:11;3.13;;;1.40;;
37971;SDS011;23794;48.234;8.344;2023-07-29T06:47:38;2.05;;;1.50;;
37971;SDS011;23794;48.234;8.344;2023-07-29T06:50:10;2.08;;;1.40;;
37971;SDS011;23794;48.234;8.344;2023-07-29T06:52:37;2.63;;;1.35;;
37971;SDS011;23794;48.234;8.344;2023-07-29T06:55:04;2.65;;;1.45;;
37971;SDS011;23794;48.234;8.344;2023-07-29T06:57:31;2.33;;;1.73;;
37971;SDS011;23794;48.234;8.344;2023-07-29T06:59:58;2.47;;;1.40;;
37971;SDS011;23794;48.234;8.344;2023-07-29T07:02:25;2.72;;;1.60;;
37971;SDS011;23794;48.234;8.344;2023-07-29T07:04:52;2.83;;;1.67;;
37971;SDS011;23794;48.234;8.344;2023-07-29T07:07:18;1.77;;;1.42;;
37971;SDS011;23794;48.234;8.344;2023-07-29T07:09:45;3.28;;;1.75;;
37971;SDS011;23794;48.234;8.344;2023-07-29T07:12:12;2.00;;;1.50;;
37971;SDS011;23794;48.234;8.344;2023-07-29T07:14:38;2.90;;;1.73;;
37971;SDS011;23794;48.234;8.344;2023-07-29T07:17:05;2.45;;;1.75;;
37971;SDS011;23794;48.234;8.344;2023-07-29T07:19:31;3.50;;;2.03;;
37971;SDS011;23794;48.234;8.344;2023-07-29T07:21:59;4.13;;;1.88;;
37971;SDS011;23794;48.234;8.344;2023-07-29T07:24:26;4.13;;;2.97;;
37971;SDS011;23794;48.234;8.344;2023-07-29T07:26:53;2.88;;;1.88;;
37971;SDS011;23794;48.234;8.344;2023-07-29T07:29:19;3.58;;;2.33;;
37971;SDS011;23794;48.234;8.344;2023-07-29T07:31:53;2.60;;;2.22;;
37971;SDS011;23794;48.234;8.344;2023-07-29T07:34:20;4.40;;;2.42;;
37971;SDS011;23794;48.234;8.344;2023-07-29T07:36:47;2.80;;;1.88;;
37971;SDS011;23794;48.234;8.344;2023-07-29T07:39:14;3.13;;;1.77;;
37971;SDS011;23794;48.234;8.344;2023-07-29T07:41:41;2.33;;;1.45;;
37971;SDS011;23794;48.234;8.344;2023-07-29T07:44:08;2.97;;;1.60;;
37971;SDS011;23794;48.234;8.344;2023-07-29T07:46:35;2.33;;;1.75;;
37971;SDS011;23794;48.234;8.344;2023-07-29T07:49:02;2.35;;;1.83;;
37971;SDS011;23794;48.234;8.344;2023-07-29T07:51:29;3.40;;;2.05;;
37971;SDS011;23794;48.234;8.344;2023-07-29T07:53:56;3.20;;;1.70;;
37971;SDS011;23794;48.234;8.344;2023-07-29T07:56:22;2.20;;;1.73;;
37971;SDS011;23794;48.234;8.344;2023-07-29T07:58:49;2.35;;;1.63;;
37971;SDS011;23794;48.234;8.344;2023-07-29T08:01:15;2.13;;;1.40;;
37971;SDS011;23794;48.234;8.344;2023-07-29T08:03:42;4.13;;;1.58;;
37971;SDS011;23794;48.234;8.344;2023-07-29T08:06:09;2.50;;;1.65;;
37971;SDS011;23794;48.234;8.344;2023-07-29T08:08:36;2.30;;;1.60;;
37971;SDS011;23794;48.234;8.344;2023-07-29T08:11:03;2.65;;;1.90;;
37971;SDS011;23794;48.234;8.344;2023-07-29T08:13:29;2.83;;;1.60;;
37971;SDS011;23794;48.234;8.344;2023-07-29T08:15:56;2.53;;;1.90;;
37971;SDS011;23794;48.234;8.344;2023-07-29T08:18:23;2.60;;;1.80;;
37971;SDS011;23794;48.234;8.344;2023-07-29T08:20:56;5.65;;;1.83;;
37971;SDS011;23794;48.234;8.344;2023-07-29T08:23:27;3.90;;;2.10;;
37971;SDS011;23794;48.234;8.344;2023-07-29T08:25:54;2.88;;;1.60;;
37971;SDS011;23794;48.234;8.344;2023-07-29T08:28:23;3.67;;;1.67;;
37971;SDS011;23794;48.234;8.344;2023-07-29T08:30:49;1.92;;;1.70;;
37971;SDS011;23794;48.234;8.344;2023-07-29T08:33:17;5.70;;;1.88;;
37971;SDS011;23794;48.234;8.344;2023-07-29T08:35:44;2.05;;;1.52;;
37971;SDS011;23794;48.234;8.344;2023-07-29T08:38:10;3.55;;;1.65;;
37971;SDS011;23794;48.234;8.344;2023-07-29T08:40:37;3.35;;;1.95;;
37971;SDS011;23794;48.234;8.344;2023-07-29T08:43:25;2.35;;;1.77;;
37971;SDS011;23794;48.234;8.344;2023-07-29T08:45:58;4.45;;;1.90;;
37971;SDS011;23794;48.234;8.344;2023-07-29T08:48:32;2.35;;;1.88;;
37971;SDS011;23794;48.234;8.344;2023-07-29T08:51:03;2.15;;;1.65;;
37971;SDS011;23794;48.234;8.344;2023-07-29T08:53:30;2.47;;;1.65;;
37971;SDS011;23794;48.234;8.344;2023-07-29T08:55:57;3.45;;;1.95;;
37971;SDS011;23794;48.234;8.344;2023-07-29T08:58:24;3.78;;;2.30;;
37971;SDS011;23794;48.234;8.344;2023-07-29T09:00:51;4.25;;;1.98;;
37971;SDS011;23794;48.234;8.344;2023-07-29T09:03:19;1.98;;;1.55;;
37971;SDS011;23794;48.234;8.344;2023-07-29T09:05:47;3.55;;;2.47;;
37971;SDS011;23794;48.234;8.344;2023-07-29T09:08:14;2.35;;;1.65;;
37971;SDS011;23794;48.234;8.344;2023-07-29T09:10:41;3.00;;;1.60;;
37971;SDS011;23794;48.234;8.344;2023-07-29T09:13:07;2.53;;;2.05;;
37971;SDS011;23794;48.234;8.344;2023-07-29T09:15:35;2.33;;;1.83;;
37971;SDS011;23794;48.234;8.344;2023-07-29T09:18:12;3.17;;;2.00;;
37971;SDS011;23794;48.234;8.344;2023-07-29T09:20:42;1.50;;;1.38;;
37971;SDS011;23794;48.234;8.344;2023-07-29T09:23:09;2.20;;;1.73;;
37971;SDS011;23794;48.234;8.344;2023-07-29T09:25:37;2.80;;;1.95;;
37971;SDS011;23794;48.234;8.344;2023-07-29T09:28:12;2.00;;;1.70;;
37971;SDS011;23794;48.234;8.344;2023-07-29T09:30:41;3.10;;;1.65;;
37971;SDS011;23794;48.234;8.344;2023-07-29T09:33:11;2.17;;;1.60;;
37971;SDS011;23794;48.234;8.344;2023-07-29T09:35:38;3.55;;;2.00;;
37971;SDS011;23794;48.234;8.344;2023-07-29T09:38:05;2.88;;;1.90;;
37971;SDS011;23794;48.234;8.344;2023-07-29T09:40:37;2.20;;;2.00;;
37971;SDS011;23794;48.234;8.344;2023-07-29T09:43:05;3.20;;;2.03;;
37971;SDS011;23794;48.234;8.344;2023-07-29T09:45:33;2.30;;;1.70;;
37971;SDS011;23794;48.234;8.344;2023-07-29T09:48:02;2.17;;;1.80;;
37971;SDS011;23794;48.234;8.344;2023-07-29T09:50:31;2.75;;;2.08;;
37971;SDS011;23794;48.234;8.344;2023-07-29T09:52:58;4.70;;;2.10;;
37971;SDS011;23794;48.234;8.344;2023-07-29T09:55:25;3.22;;;1.92;;
37971;SDS011;23794;48.234;8.344;2023-07-29T09:57:53;4.43;;;1.80;;
37971;SDS011;23794;48.234;8.344;2023-07-29T10:00:20;3.38;;;1.83;;
37971;SDS011;23794;48.234;8.344;2023-07-29T10:02:47;3.40;;;2.20;;
37971;SDS011;23794;48.234;8.344;2023-07-29T10:05:15;2.90;;;2.22;;
37971;SDS011;23794;48.234;8.344;2023-07-29T10:07:41;3.17;;;1.92;;
37971;SDS011;23794;48.234;8.344;2023-07-29T10:10:08;4.50;;;2.10;;
37971;SDS011;23794;48.234;8.344;2023-07-29T10:12:35;2.80;;;1.80;;
37971;SDS011;23794;48.234;8.344;2023-07-29T10:15:03;3.10;;;2.20;;
37971;SDS011;23794;48.234;8.344;2023-07-29T10:17:33;2.70;;;1.95;;
37971;SDS011;23794;48.234;8.344;2023-07-29T10:20:01;4.35;;;2.25;;
37971;SDS011;23794;48.234;8.344;2023-07-29T10:22:36;2.28;;;1.92;;
37971;SDS011;23794;48.234;8.344;2023-07-29T10:25:08;2.30;;;1.65;;
37971;SDS011;23794;48.234;8.344;2023-07-29T10:28:06;3.80;;;2.03;;
37971;SDS011;23794;48.234;8.344;2023-07-29T10:30:34;2.95;;;1.83;;
37971;SDS011;23794;48.234;8.344;2023-07-29T10:33:04;2.63;;;1.83;;
37971;SDS011;23794;48.234;8.344;2023-07-29T10:35:32;2.50;;;1.98;;
37971;SDS011;23794;48.234;8.344;2023-07-29T10:38:00;2.40;;;2.13;;
37971;SDS011;23794;48.234;8.344;2023-07-29T10:40:43;2.83;;;2.00;;
37971;SDS011;23794;48.234;8.344;2023-07-29T10:43:11;2.47;;;1.67;;
37971;SDS011;23794;48.234;8.344;2023-07-29T10:45:39;2.33;;;1.63;;
37971;SDS011;23794;48.234;8.344;2023-07-29T10:48:10;2.78;;;1.92;;
37971;SDS011;23794;48.234;8.344;2023-07-29T10:50:38;2.95;;;1.92;;
37971;SDS011;23794;48.234;8.344;2023-07-29T10:53:05;2.35;;;1.85;;
37971;SDS011;23794;48.234;8.344;2023-07-29T10:55:32;3.10;;;1.77;;
37971;SDS011;23794;48.234;8.344;2023-07-29T10:58:07;3.13;;;1.65;;
37971;SDS011;23794;48.234;8.344;2023-07-29T11:00:44;3.50;;;1.98;;
37971;SDS011;23794;48.234;8.344;2023-07-29T11:03:12;4.22;;;2.20;;
37971;SDS011;23794;48.234;8.344;2023-07-29T11:05:47;2.20;;;1.65;;
37971;SDS011;23794;48.234;8.344;2023-07-29T11:08:28;1.90;;;1.58;;
37971;SDS011;23794;48.234;8.344;2023-07-29T11:11:08;2.95;;;1.92;;
37971;SDS011;23794;48.234;8.344;2023-07-29T11:13:38;1.95;;;1.50;;
37971;SDS011;23794;48.234;8.344;2023-07-29T11:16:05;3.55;;;1.92;;
37971;SDS011;23794;48.234;8.344;2023-07-29T11:18:34;2.20;;;1.75;;
37971;SDS011;23794;48.234;8.344;2023-07-29T11:21:02;2.28;;;1.60;;
37971;SDS011;23794;48.234;8.344;2023-07-29T11:23:31;3.45;;;1.90;;
37971;SDS011;23794;48.234;8.344;2023-07-29T11:26:02;2.97;;;1.92;;
37971;SDS011;23794;48.234;8.344;2023-07-29T11:28:30;3.30;;;1.80;;
37971;SDS011;23794;48.234;8.344;2023-07-29T11:30:57;2.05;;;1.52;;
37971;SDS011;23794;48.234;8.344;2023-07-29T11:33:25;4.90;;;1.90;;
37971;SDS011;23794;48.234;8.344;2023-07-29T11:35:55;2.20;;;2.00;;
37971;SDS011;23794;48.234;8.344;2023-07-29T11:38:22;1.88;;;1.60;;
37971;SDS011;23794;48.234;8.344;2023-07-29T11:40:56;2.42;;;2.10;;
37971;SDS011;23794;48.234;8.344;2023-07-29T11:43:25;2.75;;;1.80;;
37971;SDS011;23794;48.234;8.344;2023-07-29T11:45:53;1.95;;;1.50;;
37971;SDS011;23794;48.234;8.344;2023-07-29T11:48:31;1.95;;;1.48;;
37971;SDS011;23794;48.234;8.344;2023-07-29T11:50:58;2.33;;;1.65;;
37971;SDS011;23794;48.234;8.344;2023-07-29T11:53:26;3.13;;;1.90;;
37971;SDS011;23794;48.234;8.344;2023-07-29T11:55:55;2.92;;;1.63;;
37971;SDS011;23794;48.234;8.344;2023-07-29T11:58:22;2.40;;;1.60;;
37971;SDS011;23794;48.234;8.344;2023-07-29T12:00:50;3.15;;;1.70;;
37971;SDS011;23794;48.234;8.344;2023-07-29T12:03:17;3.78;;;1.55;;
37971;SDS011;23794;48.234;8.344;2023-07-29T12:05:45;3.00;;;1.90;;
37971;SDS011;23794;48.234;8.344;2023-07-29T12:08:12;4.22;;;1.60;;
37971;SDS011;23794;48.234;8.344;2023-07-29T12:10:39;2.60;;;1.92;;
37971;SDS011;23794;48.234;8.344;2023-07-29T12:13:07;2.17;;;1.40;;
37971;SDS011;23794;48.234;8.344;2023-07-29T12:15:34;2.13;;;1.63;;
37971;SDS011;23794;48.234;8.344;2023-07-29T12:18:01;4.50;;;1.58;;
37971;SDS011;23794;48.234;8.344;2023-07-29T12:20:29;3.33;;;1.98;;
37971;SDS011;23794;48.234;8.344;2023-07-29T12:22:56;2.08;;;1.50;;
37971;SDS011;23794;48.234;8.344;2023-07-29T12:25:26;2.33;;;1.48;;
37971;SDS011;23794;48.234;8.344;2023-07-29T12:27:52;1.77;;;1.60;;
37971;SDS011;23794;48.234;8.344;2023-07-29T12:30:20;2.60;;;1.80;;
37971;SDS011;23794;48.234;8.344;2023-07-29T12:32:48;2.35;;;1.90;;
37971;SDS011;23794;48.234;8.344;2023-07-29T12:35:15;1.67;;;1.58;;
37971;SDS011;23794;48.234;8.344;2023-07-29T12:37:41;2.10;;;1.90;;
37971;SDS011;23794;48.234;8.344;2023-07-29T12:40:20;1.90;;;1.63;;
37971;SDS011;23794;48.234;8.344;2023-07-29T12:42:50;1.85;;;1.42;;
37971;SDS011;23794;48.234;8.344;2023-07-29T12:45:18;2.45;;;1.83;;
37971;SDS011;23794;48.234;8.344;2023-07-29T12:47:45;3.08;;;1.42;;
37971;SDS011;23794;48.234;8.344;2023-07-29T12:50:11;2.58;;;1.50;;
37971;SDS011;23794;48.234;8.344;2023-07-29T12:52:38;1.88;;;1.60;;
37971;SDS011;23794;48.234;8.344;2023-07-29T12:55:05;2.25;;;1.73;;
37971;SDS011;23794;48.234;8.344;2023-07-29T12:57:35;3.92;;;1.63;;
37971;SDS011;23794;48.234;8.344;2023-07-29T13:00:02;2.17;;;1.73;;
37971;SDS011;23794;48.234;8.344;2023-07-29T13:02:30;2.83;;;2.13;;
37971;SDS011;23794;48.234;8.344;2023-07-29T13:04:57;2.35;;;1.77;;
37971;SDS011;23794;48.234;8.344;2023-07-29T13:07:24;1.77;;;1.50;;
37971;SDS011;23794;48.234;8.344;2023-07-29T13:09:51;1.63;;;1.52;;
37971;SDS011;23794;48.234;8.344;2023-07-29T13:12:18;3.55;;;1.88;;
37971;SDS011;23794;48.234;8.344;2023-07-29T13:14:45;1.92;;;1.48;;
37971;SDS011;23794;48.234;8.344;2023-07-29T13:17:11;3.15;;;1.60;;
37971;SDS011;23794;48.234;8.344;2023-07-29T13:19:38;2.22;;;1.75;;
37971;SDS011;23794;48.234;8.344;2023-07-29T13:22:04;1.70;;;1.48;;
37971;SDS011;23794;48.234;8.344;2023-07-29T13:24:31;2.97;;;1.77;;
37971;SDS011;23794;48.234;8.344;2023-07-29T13:26:58;1.70;;;1.50;;
37971;SDS011;23794;48.234;8.344;2023-07-29T13:29:25;3.30;;;1.80;;
37971;SDS011;23794;48.234;8.344;2023-07-29T13:31:51;1.90;;;1.65;;
37971;SDS011;23794;48.234;8.344;2023-07-29T13:34:18;2.50;;;1.52;;
37971;SDS011;23794;48.234;8.344;2023-07-29T13:36:45;2.35;;;1.85;;
37971;SDS011;23794;48.234;8.344;2023-07-29T13:39:11;1.90;;;1.52;;
37971;SDS011;23794;48.234;8.344;2023-07-29T13:41:38;3.60;;;2.03;;
37971;SDS011;23794;48.234;8.344;2023-07-29T13:44:05;1.95;;;1.70;;
37971;SDS011;23794;48.234;8.344;2023-07-29T13:46:32;1.77;;;1.27;;
37971;SDS011;23794;48.234;8.344;2023-07-29T13:48:58;2.25;;;1.98;;
37971;SDS011;23794;48.234;8.344;2023-07-29T13:51:25;1.92;;;1.65;;
37971;SDS011;23794;48.234;8.344;2023-07-29T13:53:52;3.55;;;1.90;;
37971;SDS011;23794;48.234;8.344;2023-07-29T13:56:19;3.40;;;2.13;;
37971;SDS011;23794;48.234;8.344;2023-07-29T13:58:45;3.28;;;1.63;;
37971;SDS011;23794;48.234;8.344;2023-07-29T14:01:12;4.32;;;1.80;;
37971;SDS011;23794;48.234;8.344;2023-07-29T14:03:39;3.13;;;1.70;;
37971;SDS011;23794;48.234;8.344;2023-07-29T14:06:05;2.00;;;1.70;;
37971;SDS011;23794;48.234;8.344;2023-07-29T14:08:32;3.47;;;1.90;;
37971;SDS011;23794;48.234;8.344;2023-07-29T14:10:59;2.58;;;2.08;;
37971;SDS011;23794;48.234;8.344;2023-07-29T14:13:25;2.53;;;1.83;;
37971;SDS011;23794;48.234;8.344;2023-07-29T14:15:52;3.45;;;1.67;;
37971;SDS011;23794;48.234;8.344;2023-07-29T14:18:19;2.28;;;1.73;;
37971;SDS011;23794;48.234;8.344;2023-07-29T14:20:46;2.55;;;1.90;;
37971;SDS011;23794;48.234;8.344;2023-07-29T14:23:13;2.17;;;1.70;;
37971;SDS011;23794;48.234;8.344;2023-07-29T14:25:39;2.92;;;2.20;;
37971;SDS011;23794;48.234;8.344;2023-07-29T14:28:06;3.40;;;2.05;;
37971;SDS011;23794;48.234;8.344;2023-07-29T14:30:33;2.67;;;1.77;;
37971;SDS011;23794;48.234;8.344;2023-07-29T14:33:00;5.57;;;2.58;;
37971;SDS011;23794;48.234;8.344;2023-07-29T14:35:27;2.85;;;1.98;;
37971;SDS011;23794;48.234;8.344;2023-07-29T14:37:53;8.05;;;2.40;;
37971;SDS011;23794;48.234;8.344;2023-07-29T14:40:20;3.10;;;1.95;;
37971;SDS011;23794;48.234;8.344;2023-07-29T14:42:47;6.45;;;3.13;;
37971;SDS011;23794;48.234;8.344;2023-07-29T14:45:14;5.97;;;2.60;;
37971;SDS011;23794;48.234;8.344;2023-07-29T14:47:40;4.65;;;2.20;;
37971;SDS011;23794;48.234;8.344;2023-07-29T14:50:07;4.68;;;2.38;;
37971;SDS011;23794;48.234;8.344;2023-07-29T14:52:34;4.03;;;2.53;;
37971;SDS011;23794;48.234;8.344;2023-07-29T14:55:01;2.70;;;1.85;;